Terminal Aerodrome Forecast
Issued by NWS Portland, OR

Home | Current Version | Previous Version | Text Only | Print | Product List | Glossary On
Versions: 1 2 3 4 5 6 7 8 9 10 11 12 13 14 15 16 17 18 19 20 21 22 23 24 25 26 27 28 29 30 31 32 33 34 35 36 37 38 39
000
FTUS46 KPQR 260217 AAA
TAFSLE
TAF AMD
KSLE 260217Z 2602/2624 00000KT P6SM VCSH SCT040 OVC070
     FM260400 VRB03KT P6SM VCSH SCT025 BKN040 OVC070
     FM260800 00000KT P6SM VCSH SCT008 OVC020
     FM261200 00000KT 6SM BR OVC008
     FM261800 VRB03KT P6SM OVC015
     FM262200 VRB03KT P6SM BKN025=

USA.gov is the U.S. government's official web portal to all federal, state and local government web resources and services.